createdAt,value
2018-04-02T00:02:36.383Z,62.50
2018-04-02T00:06:38.994Z,62.50
2018-04-02T00:10:41.633Z,62.50
2018-04-02T00:14:44.273Z,62.70
2018-04-02T00:18:46.932Z,62.30
2018-04-02T00:22:49.571Z,62.40
2018-04-02T00:26:52.175Z,62.20
2018-04-02T00:30:54.806Z,62.20
2018-04-02T00:34:57.441Z,62.10
2018-04-02T00:39:00.846Z,62.30
2018-04-02T00:43:04.246Z,62.30
2018-04-02T00:47:07.618Z,62.40
2018-04-02T00:51:10.259Z,62.00
2018-04-02T00:55:12.910Z,62.50
2018-04-02T00:59:15.553Z,62.20
2018-04-02T01:03:18.197Z,62.40
2018-04-02T01:07:20.801Z,62.40
2018-04-02T01:11:24.206Z,62.20
2018-04-02T01:15:26.856Z,62.20
2018-04-02T01:19:29.514Z,62.10
2018-04-02T01:23:32.122Z,62.20
2018-04-02T01:27:34.778Z,62.10
2018-04-02T01:31:37.422Z,62.70
2018-04-02T01:35:40.057Z,63.00
2018-04-02T01:39:43.460Z,62.90
2018-04-02T01:43:46.070Z,62.10
2018-04-02T01:47:48.761Z,62.20
2018-04-02T01:51:51.415Z,62.00
2018-04-02T01:55:54.081Z,63.40
2018-04-02T01:59:57.492Z,63.00
2018-04-02T02:04:00.861Z,62.80
2018-04-02T02:08:03.503Z,62.70
2018-04-02T02:12:06.146Z,62.60
2018-04-02T02:16:08.794Z,61.80
2018-04-02T02:20:11.446Z,62.20
2018-04-02T02:24:14.818Z,62.40
2018-04-02T02:28:17.466Z,62.40
2018-04-02T02:32:20.112Z,62.20
2018-04-02T02:36:22.747Z,62.30
2018-04-02T02:40:25.386Z,62.20
2018-04-02T02:44:27.996Z,62.50
2018-04-02T02:48:31.408Z,62.30
2018-04-02T02:52:34.871Z,62.20
2018-04-02T02:56:37.515Z,62.10
2018-04-02T03:00:40.185Z,62.20
2018-04-02T03:04:43.605Z,62.00
2018-04-02T03:08:47.058Z,62.30
2018-04-02T03:12:49.716Z,62.20
2018-04-02T03:16:52.352Z,62.20
2018-04-02T03:20:54.957Z,62.20
2018-04-02T03:24:58.375Z,62.20
2018-04-02T03:29:01.832Z,62.10
2018-04-02T03:33:04.505Z,62.10
2018-04-02T03:37:07.971Z,62.00
2018-04-02T03:41:11.340Z,61.80
2018-04-02T03:45:13.990Z,61.80
2018-04-02T03:49:16.625Z,61.80
2018-04-02T03:53:19.266Z,61.90
2018-04-02T03:57:21.874Z,62.00
2018-04-02T04:01:24.505Z,61.80
2018-04-02T04:05:27.164Z,61.80
2018-04-02T04:09:29.809Z,61.70
2018-04-02T04:13:32.453Z,61.70
2018-04-02T04:17:35.120Z,61.80
2018-04-02T04:21:37.760Z,61.90
2018-04-02T04:25:41.166Z,61.90
2018-04-02T04:29:44.570Z,62.50
2018-04-02T04:33:47.982Z,61.80
2018-04-02T04:37:51.411Z,61.80
2018-04-02T04:41:54.046Z,61.80
2018-04-02T04:45:56.687Z,61.80
2018-04-02T04:49:59.406Z,61.80
2018-04-02T04:54:02.041Z,62.10
2018-04-02T04:58:05.410Z,61.80
2018-04-02T05:02:08.058Z,61.70
2018-04-02T05:06:10.773Z,61.90
2018-04-02T05:10:13.445Z,62.30
2018-04-02T05:14:16.154Z,61.90
2018-04-02T05:18:18.812Z,62.20
2018-04-02T05:22:21.449Z,62.50
2018-04-02T05:26:24.098Z,62.00
2018-04-02T05:30:27.502Z,62.00
2018-04-02T05:34:30.114Z,61.90
2018-04-02T05:38:32.810Z,62.20
2018-04-02T05:42:35.444Z,62.30
2018-04-02T05:46:38.124Z,62.60
2018-04-02T05:50:41.534Z,62.90
2018-04-02T05:54:44.906Z,63.10
2018-04-02T05:58:47.612Z,63.10
2018-04-02T06:02:50.250Z,63.00
2018-04-02T06:06:52.892Z,63.20
2018-04-02T06:10:55.542Z,63.00
2018-04-02T06:14:58.145Z,63.90
2018-04-02T06:19:00.786Z,63.40
2018-04-02T06:23:03.438Z,62.80
2018-04-02T06:27:06.151Z,62.90
2018-04-02T06:31:09.709Z,63.10
2018-04-02T06:35:12.348Z,62.40
2018-04-02T06:39:15.758Z,63.30
2018-04-02T06:43:19.160Z,64.30
2018-04-02T06:47:22.586Z,64.20
2018-04-02T06:51:25.234Z,64.30
2018-04-02T06:55:27.902Z,63.80
2018-04-02T06:59:30.547Z,64.00
2018-04-02T07:03:33.188Z,64.40
2018-04-02T07:07:35.837Z,64.90
2018-04-02T07:11:38.446Z,64.00
2018-04-02T07:15:41.086Z,65.30
2018-04-02T07:19:44.499Z,64.90
2018-04-02T07:23:47.910Z,64.90
2018-04-02T07:27:50.561Z,64.80
2018-04-02T07:31:53.204Z,65.10
2018-04-02T07:35:55.859Z,65.00
2018-04-02T07:39:59.270Z,65.00
2018-04-02T07:44:02.730Z,64.50
2018-04-02T07:48:05.341Z,64.40
2018-04-02T07:52:07.987Z,65.10
2018-04-02T07:56:10.625Z,64.90
2018-04-02T08:00:13.295Z,64.60
2018-04-02T08:04:16.024Z,64.80
2018-04-02T08:08:19.393Z,64.90
2018-04-02T08:12:22.050Z,64.80
2018-04-02T08:16:24.692Z,65.00
2018-04-02T08:20:28.091Z,65.70
2018-04-02T08:24:30.728Z,65.60
2018-04-02T08:28:33.441Z,64.30
2018-04-02T08:32:36.142Z,64.90
2018-04-02T08:36:39.523Z,64.30
2018-04-02T08:40:42.220Z,64.20
2018-04-02T08:44:45.013Z,63.80
2018-04-02T08:48:47.630Z,64.00
2018-04-02T08:52:50.264Z,63.80
2018-04-02T08:56:52.901Z,64.00
2018-04-02T09:00:55.608Z,64.20
2018-04-02T09:04:59.024Z,63.30
2018-04-02T09:09:02.394Z,63.60
2018-04-02T09:13:05.092Z,63.60
2018-04-02T09:17:07.729Z,63.70
2018-04-02T09:21:10.374Z,64.00
2018-04-02T09:25:12.973Z,63.60
2018-04-02T09:29:16.372Z,63.50
2018-04-02T09:33:19.017Z,63.50
2018-04-02T09:37:21.659Z,64.10
2018-04-02T09:41:25.066Z,63.30
2018-04-02T09:45:28.464Z,63.50
2018-04-02T09:49:31.877Z,64.00
2018-04-02T09:53:35.304Z,63.50
2018-04-02T09:57:38.446Z,62.90
2018-04-02T10:01:41.185Z,62.80
2018-04-02T10:05:43.802Z,63.20
2018-04-02T10:09:47.202Z,62.80
2018-04-02T10:13:49.843Z,61.90
2018-04-02T10:17:52.477Z,62.90
2018-04-02T10:21:55.139Z,63.00
2018-04-02T10:25:58.573Z,62.40
2018-04-02T10:30:01.293Z,61.20
2018-04-02T10:34:03.874Z,62.40
2018-04-02T10:38:06.518Z,60.80
2018-04-02T10:42:09.126Z,62.10
2018-04-02T10:46:11.780Z,61.70
2018-04-02T10:50:15.373Z,61.30
2018-04-02T10:54:18.057Z,61.20
2018-04-02T10:58:21.315Z,61.20
2018-04-02T11:02:23.346Z,61.50
2018-04-02T11:06:26.012Z,61.20
2018-04-02T11:10:28.683Z,60.50
2018-04-02T11:14:31.330Z,61.60
2018-04-02T11:18:33.977Z,61.30
2018-04-02T11:22:36.593Z,61.20
2018-04-02T11:26:40.019Z,61.10
2018-04-02T11:30:42.662Z,61.10
2018-04-02T11:34:45.307Z,61.10
2018-04-02T11:38:47.961Z,60.60
2018-04-02T11:42:51.344Z,60.90
2018-04-02T11:46:53.993Z,60.80
2018-04-02T11:50:56.634Z,60.50
2018-04-02T11:54:59.273Z,60.20
2018-04-02T11:59:01.882Z,59.50
2018-04-02T12:03:04.545Z,59.70
2018-04-02T12:07:07.186Z,60.40
2018-04-02T12:15:19.445Z,59.60
2018-04-02T12:19:22.817Z,59.20
2018-04-02T12:23:25.456Z,59.20
2018-04-02T12:27:28.107Z,59.50
2018-04-02T12:31:30.750Z,58.60
2018-04-02T12:35:33.394Z,59.20
2018-04-02T12:39:36.825Z,58.90
2018-04-02T12:43:39.465Z,58.90
2018-04-02T12:47:42.906Z,58.90
2018-04-02T12:51:45.581Z,59.00
2018-04-02T12:55:48.224Z,58.90
2018-04-02T12:59:50.838Z,58.70
2018-04-02T13:03:54.335Z,57.90
2018-04-02T13:07:56.974Z,57.80
2018-04-02T13:12:00.394Z,58.10
2018-04-02T13:16:03.072Z,58.10
2018-04-02T13:20:05.712Z,58.20
2018-04-02T13:24:08.359Z,58.50
2018-04-02T13:28:10.998Z,57.90
2018-04-02T13:32:13.643Z,57.10
2018-04-02T13:36:16.311Z,57.10
2018-04-02T13:40:19.071Z,57.40
2018-04-02T13:44:21.709Z,57.70
2018-04-02T13:48:24.353Z,57.20
2018-04-02T13:52:26.997Z,56.80
2018-04-02T13:56:29.602Z,57.10
2018-04-02T14:00:32.242Z,56.60
2018-04-02T14:04:35.660Z,56.70
2018-04-02T14:08:38.311Z,56.50
2018-04-02T14:12:40.961Z,57.30
2018-04-02T14:16:43.571Z,57.10
2018-04-02T14:20:46.213Z,56.90
2018-04-02T14:24:48.853Z,56.90
2018-04-02T14:28:51.504Z,56.40
2018-04-02T14:32:54.171Z,57.00
2018-04-02T14:36:56.867Z,57.30
2018-04-02T14:40:59.526Z,56.40
2018-04-02T14:45:02.942Z,56.80
2018-04-02T14:49:06.357Z,56.50
2018-04-02T14:53:08.967Z,56.40
2018-04-02T14:57:11.606Z,56.30
2018-04-02T15:01:14.413Z,56.70
2018-04-02T15:05:17.113Z,56.70
2018-04-02T15:09:19.754Z,57.00
2018-04-02T15:13:22.369Z,56.70
2018-04-02T15:17:25.791Z,56.90
2018-04-02T15:21:29.250Z,56.70
2018-04-02T15:25:31.899Z,56.70
2018-04-02T15:29:34.540Z,57.20
2018-04-02T15:33:37.149Z,57.50
2018-04-02T15:37:40.554Z,57.80
2018-04-02T15:41:44.066Z,57.80
2018-04-02T15:45:47.470Z,57.90
2018-04-02T15:49:50.889Z,58.20
2018-04-02T15:53:53.528Z,58.20
2018-04-02T15:57:56.174Z,58.30
2018-04-02T16:01:58.813Z,57.10
2018-04-02T16:06:01.446Z,57.60
2018-04-02T16:10:04.869Z,57.30
2018-04-02T16:14:07.513Z,57.30
2018-04-02T16:18:10.155Z,57.70
2018-04-02T16:22:12.794Z,57.30
2018-04-02T16:26:15.493Z,57.10
2018-04-02T16:30:18.865Z,57.70
2018-04-02T16:34:21.514Z,57.60
2018-04-02T16:38:24.155Z,57.60
2018-04-02T16:42:26.798Z,57.60
2018-04-02T16:46:29.446Z,57.80
2018-04-02T16:50:32.883Z,58.20
2018-04-02T16:54:35.520Z,58.10
2018-04-02T16:58:38.172Z,58.00
2018-04-02T17:02:40.818Z,58.00
2018-04-02T17:06:44.264Z,58.10
2018-04-02T17:10:46.874Z,58.10
2018-04-02T17:14:49.513Z,58.20
2018-04-02T17:18:52.916Z,58.30
2018-04-02T17:22:55.645Z,58.20
2018-04-02T17:26:58.309Z,58.30
2018-04-02T17:31:00.949Z,58.40
2018-04-02T17:35:03.598Z,58.40
2018-04-02T17:39:06.249Z,58.50
2018-04-02T17:43:08.918Z,58.70
2018-04-02T17:47:11.538Z,58.90
2018-04-02T17:51:14.946Z,59.30
2018-04-02T17:55:18.358Z,59.40
2018-04-02T17:59:21.010Z,59.30
2018-04-02T18:03:23.648Z,59.50
2018-04-02T18:07:26.255Z,59.40
2018-04-02T18:11:28.956Z,59.90
2018-04-02T18:15:31.626Z,60.00
2018-04-02T18:19:34.319Z,60.00
2018-04-02T18:23:36.939Z,60.50
2018-04-02T18:27:39.540Z,60.40
2018-04-02T18:31:42.265Z,60.70
2018-04-02T18:35:44.959Z,60.50
2018-04-02T18:39:47.603Z,60.30
2018-04-02T18:43:50.211Z,60.30
2018-04-02T18:47:53.625Z,60.50
2018-04-02T18:51:57.031Z,60.40
2018-04-02T18:55:59.710Z,60.40
2018-04-02T19:00:03.116Z,60.90
2018-04-02T19:04:06.489Z,60.80
2018-04-02T19:08:09.194Z,60.80
2018-04-02T19:12:11.840Z,60.70
2018-04-02T19:16:14.547Z,61.00
2018-04-02T19:20:17.213Z,60.90
2018-04-02T19:24:19.825Z,61.20
2018-04-02T19:28:22.463Z,60.80
2018-04-02T19:32:25.166Z,60.90
2018-04-02T19:36:27.803Z,61.30
2018-04-02T19:40:30.441Z,61.40
2018-04-02T19:44:33.053Z,61.50
2018-04-02T19:48:35.754Z,61.40
2018-04-02T19:52:38.450Z,61.00
2018-04-02T19:56:41.081Z,61.00
2018-04-02T20:00:44.496Z,60.80
2018-04-02T20:04:47.146Z,60.70
2018-04-02T20:08:49.873Z,60.40
2018-04-02T20:12:52.508Z,60.10
2018-04-02T20:16:55.162Z,60.00
2018-04-02T20:20:57.772Z,59.70
2018-04-02T20:25:00.400Z,59.10
2018-04-02T20:29:03.039Z,59.50
2018-04-02T20:33:05.679Z,59.50
2018-04-02T20:37:09.077Z,59.50
2018-04-02T20:41:11.694Z,58.70
2018-04-02T20:45:14.334Z,59.70
2018-04-02T20:49:16.980Z,58.90
2018-04-02T20:53:19.669Z,58.30
2018-04-02T20:57:22.302Z,58.80
2018-04-02T21:01:24.914Z,59.00
2018-04-02T21:05:28.318Z,59.50
2018-04-02T21:09:31.779Z,59.50
2018-04-02T21:13:34.426Z,59.50
2018-04-02T21:17:37.848Z,59.90
2018-04-02T21:21:40.457Z,59.90
2018-04-02T21:25:43.092Z,59.70
2018-04-02T21:29:45.734Z,59.70
2018-04-02T21:33:48.378Z,60.20
2018-04-02T21:37:51.763Z,59.80
2018-04-02T21:41:54.450Z,59.70
2018-04-02T21:45:57.093Z,59.90
2018-04-02T21:49:59.739Z,60.10
2018-04-02T21:54:02.375Z,60.30
2018-04-02T21:58:04.990Z,60.50
2018-04-02T22:02:07.626Z,60.40
2018-04-02T22:06:22.118Z,60.80
2018-04-02T22:10:24.753Z,60.80
2018-04-02T22:14:27.404Z,60.40
2018-04-02T22:18:30.014Z,60.70
2018-04-02T22:22:32.643Z,60.90
2018-04-02T22:26:36.054Z,61.60
2018-04-02T22:30:38.689Z,61.50
2018-04-02T22:34:41.321Z,62.10
2018-04-02T22:38:44.695Z,61.60
2018-04-02T22:42:47.389Z,61.60
2018-04-02T22:46:50.074Z,61.60
2018-04-02T22:50:52.718Z,62.10
2018-04-02T22:54:55.310Z,61.50
2018-04-02T22:58:57.949Z,62.20
2018-04-02T23:03:00.594Z,61.70
2018-04-02T23:07:03.337Z,61.80
2018-04-02T23:11:06.003Z,62.60
2018-04-02T23:15:08.605Z,61.20
2018-04-02T23:19:11.238Z,62.10
2018-04-02T23:23:13.937Z,61.40
2018-04-02T23:27:16.575Z,61.40
2018-04-02T23:31:19.982Z,62.30
2018-04-02T23:35:23.417Z,62.30
2018-04-02T23:39:26.059Z,61.50
2018-04-02T23:43:28.709Z,62.90
2018-04-02T23:47:31.352Z,62.60
2018-04-02T23:51:34.765Z,63.10
2018-04-02T23:55:38.138Z,63.70
2018-04-02T23:59:40.785Z,63.60
